Flight Track Log - Related Links

Times and Time Zones

All times are in EDT time to prevent confusion due to time zone crossing. See the EJA922 flight status page for this flight to view local times or setup timezone preferences in your user account.

Time Position Orientation Groundspeed Altitude Reporting Facility
EDT Latitude Longitude Course Direction KTS MPH feet Rate Location/Type
Sat 12:24:16 PM 35.8542 -78.8083 223° Southwest 187 215 1,200  Level Washington Center
Sat 12:24:46 PM 35.8325 -78.8331 223° Southwest 192 221 2,700 2,948 Climbing Washington Center
Sat 12:26:12 PM 35.8356 -78.9483 272° West 260 299 6,900 3,247 Climbing Washington Center
Sat 12:27:12 PM 35.8372 -79.0408 271° West 274 315 10,600 2,950 Climbing Washington Center
Sat 12:28:12 PM 35.8342 -79.1481 268° West 304 350 12,800 2,436 Climbing Washington Center
Sat 12:29:57 PM 35.8314 -79.3617 269° West 338 389 17,300 2,436 Climbing Atlanta Center
Sat 12:30:57 PM 35.8211 -79.4775 264° West 349 402 19,500 1,850 Climbing Atlanta Center
Sat 12:31:57 PM 35.8086 -79.5911 262° West 349 402 21,000 1,200 Climbing Atlanta Center
Sat 12:32:57 PM 35.7894 -79.6919 257° West 349 402 21,900 1,050 Climbing Atlanta Center
Sat 12:33:57 PM 35.7922 -79.8300 271° West 361 415 23,100 1,100 Climbing Atlanta Center
Sat 12:34:57 PM 35.8419 -79.9453 298° West 367 422 24,100 1,100 Climbing Atlanta Center
Sat 12:35:57 PM 35.8939 -80.0656 298° West 382 440 25,300 1,200 Climbing Atlanta Center
Sat 12:36:57 PM 35.9456 -80.1836 298° West 394 453 26,500 1,200 Climbing Atlanta Center
Sat 12:37:57 PM 35.9950 -80.2967 298° West 399 459 27,700 1,050 Climbing Atlanta Center
Sat 12:38:57 PM 36.0467 -80.4228 297° West 404 465 28,600 750 Climbing Atlanta Center
Sat 12:39:57 PM 36.1025 -80.5489 299° West 410 472 29,200 800 Climbing Atlanta Center
Sat 12:40:57 PM 36.1692 -80.7003 299° West 431 496 30,200 1,100 Climbing Atlanta Center
Sat 12:41:57 PM 36.2250 -80.8292 298° West 440 506 31,400 1,350 Climbing Atlanta Center
Sat 12:42:57 PM 36.2825 -80.9583 299° West 440 506 32,900 1,350 Climbing Atlanta Center
Sat 12:43:57 PM 36.3378 -81.0928 297° West 433 498 34,100 1,000 Climbing Atlanta Center
Sat 12:44:57 PM 36.3953 -81.2247 298° West 433 498 34,900 750 Climbing Atlanta Center
Sat 12:45:57 PM 36.4503 -81.3569 297° West 433 498 35,600 861 Climbing Atlanta Center
Sat 12:48:19 PM 36.5778 -81.6639 297° West 440 506 37,800 706 Climbing Indianapolis Center
Sat 12:49:21 PM 36.6339 -81.7994 297° West 439 505 38,000 98 Climbing Indianapolis Center
Sat 12:50:22 PM 36.7003 -81.9647 297° West 455 524 38,000  Level Indianapolis Center
Sat 12:51:24 PM 36.7600 -82.1089 297° West 465 535 38,000  Level Indianapolis Center
Sat 12:52:25 PM 36.8203 -82.2525 298° West 467 537 38,000  Level Indianapolis Center
Sat 12:53:27 PM 36.8783 -82.3983 296° West 469 540 38,000 48 Level Indianapolis Center
Sat 12:54:29 PM 36.9381 -82.5453 297° West 473 544 38,100 683 Climbing Indianapolis Center
Sat 12:55:30 PM 36.9956 -82.6867 297° West 464 534 39,400 1,366 Climbing Indianapolis Center
Sat 12:56:32 PM 37.0583 -82.8428 297° West 440 506 40,900 1,122 Climbing Indianapolis Center
Sat 12:57:33 PM 37.1111 -82.9744 297° West 431 496 41,700 488 Climbing Indianapolis Center
Sat 12:58:35 PM 37.1619 -83.1056 296° West 423 487 41,900 242 Climbing Indianapolis Center
Sat 12:59:37 PM 37.2142 -83.2408 296° West 429 494 42,200 341 Climbing Indianapolis Center
Sat 01:00:38 PM 37.2681 -83.3761 297° West 434 499 42,600 390 Climbing Indianapolis Center
Sat 01:01:40 PM 37.3214 -83.5128 296° West 435 501 43,000 195 Climbing Indianapolis Center
Sat 01:02:41 PM 37.3847 -83.6753 296° West 443 510 43,000  Level Indianapolis Center
Sat 01:03:43 PM 37.4414 -83.8192 296° West 455 524 43,000  Level Indianapolis Center
Sat 01:04:45 PM 37.4881 -83.9669 292° West 455 524 43,000  Level Indianapolis Center
Sat 01:05:46 PM 37.5067 -84.1256 278° West 457 526 43,000  Level Indianapolis Center
Sat 01:06:48 PM 37.5239 -84.2850 278° West 459 528 43,000  Level Indianapolis Center
Sat 01:07:50 PM 37.5422 -84.4450 278° West 462 532 43,000  Level Indianapolis Center
Sat 01:08:51 PM 37.5633 -84.6267 278° West 452 520 43,000  Level Indianapolis Center
Sat 01:09:53 PM 37.5811 -84.7842 278° West 453 521 43,000  Level Indianapolis Center
Sat 01:10:55 PM 37.5978 -84.9403 278° West 449 517 43,000  Level Indianapolis Center
Sat 01:11:56 PM 37.6147 -85.0961 278° West 448 516 43,000  Level Indianapolis Center
Sat 01:12:58 PM 37.6308 -85.2522 277° West 446 513 43,000  Level Indianapolis Center
Sat 01:14:00 PM 37.6489 -85.4067 278° West 446 513 43,000  Level Indianapolis Center
Sat 01:15:01 PM 37.6661 -85.5672 278° West 450 518 43,000  Level Indianapolis Center
Sat 01:16:03 PM 37.6822 -85.7261 277° West 454 522 43,000  Level Indianapolis Center
Sat 01:17:05 PM 37.6983 -85.8831 277° West 451 519 43,000  Level Indianapolis Center
Sat 01:18:06 PM 37.7144 -86.0419 277° West 453 521 43,000  Level Indianapolis Center
Sat 01:19:08 PM 37.7317 -86.2292 277° West 451 519 43,000  Level Indianapolis Center
Sat 01:20:10 PM 37.7475 -86.3881 277° West 453 521 43,000  Level Indianapolis Center
Sat 01:21:11 PM 37.7636 -86.5472 277° West 449 517 43,000  Level Indianapolis Center
Sat 01:22:13 PM 37.7775 -86.7022 277° West 443 510 43,000  Level Indianapolis Center
Sat 01:23:15 PM 37.7925 -86.8594 277° West 446 513 43,000  Level Indianapolis Center
Sat 01:24:16 PM 37.8081 -87.0172 277° West 449 517 43,000  Level Indianapolis Center
Sat 01:25:18 PM 37.8214 -87.1742 276° West 446 513 43,000  Level Indianapolis Center
Sat 01:26:20 PM 37.8361 -87.3306 277° West 445 512 43,000  Level Indianapolis Center
Sat 01:27:21 PM 37.8500 -87.4867 276° West 443 510 43,000  Level Indianapolis Center
Sat 01:28:23 PM 37.8633 -87.6419 276° West 441 507 43,000  Level Indianapolis Center
Sat 01:29:25 PM 37.8767 -87.7969 276° West 441 507 43,000  Level Indianapolis Center
Sat 01:30:26 PM 37.8897 -87.9511 276° West 438 504 43,000  Level Indianapolis Center
Sat 01:31:28 PM 37.9056 -88.1367 276° West 439 505 43,000  Level Indianapolis Center
Sat 01:32:08 PM 37.9133 -88.2297 276° West 439 505 43,000  Level Kansas City Center
Sat 01:33:09 PM 37.9244 -88.3842 275° West 438 504 43,000  Level Kansas City Center
Sat 01:34:11 PM 37.9369 -88.5383 276° West 438 504 43,000  Level Kansas City Center
Sat 01:35:13 PM 37.9508 -88.7039 276° West 440 506 43,000  Level Kansas City Center
Sat 01:36:15 PM 37.9644 -88.8586 276° West 443 510 43,000  Level Kansas City Center
Sat 01:37:17 PM 37.9761 -89.0142 275° West 443 510 43,000  Level Kansas City Center
Sat 01:38:19 PM 37.9861 -89.1897 274° West 447 514 43,000  Level Kansas City Center
Sat 01:39:21 PM 37.9978 -89.3456 275° West 445 512 43,000  Level Kansas City Center
Sat 01:40:23 PM 38.0103 -89.5136 275° West 445 512 43,000  Level Kansas City Center
Sat 01:41:25 PM 38.0208 -89.6711 275° West 448 516 43,000  Level Kansas City Center
Sat 01:42:27 PM 38.0325 -89.8417 275° West 450 518 43,000  Level Kansas City Center
Sat 01:43:29 PM 38.0431 -90.0008 275° West 452 520 43,000  Level Kansas City Center
Sat 01:44:31 PM 38.0528 -90.1492 275° West 453 521 43,000  Level Kansas City Center
Sat 01:45:33 PM 38.0628 -90.3078 275° West 451 519 43,000  Level Kansas City Center
Sat 01:46:35 PM 38.0728 -90.4658 275° West 448 516 43,000  Level Kansas City Center
Sat 01:47:37 PM 38.0817 -90.6242 274° West 448 516 43,000  Level Kansas City Center
Sat 01:48:39 PM 38.0936 -90.8178 275° West 455 524 43,000  Level Kansas City Center
Sat 01:49:41 PM 38.1033 -90.9792 274° West 456 525 43,000  Level Kansas City Center
Sat 01:50:43 PM 38.1117 -91.1333 274° West 453 521 43,000  Level Kansas City Center
Sat 01:51:45 PM 38.1206 -91.2939 274° West 455 524 43,000  Level Kansas City Center
Sat 01:52:47 PM 38.1317 -91.4875 274° West 456 525 43,000  Level Kansas City Center
Sat 01:53:49 PM 38.1411 -91.6486 274° West 457 526 43,000  Level Kansas City Center
Sat 01:54:51 PM 38.1497 -91.8097 274° West 457 526 43,000  Level Kansas City Center
Sat 01:55:53 PM 38.1578 -91.9703 274° West 457 526 43,000  Level Kansas City Center
Sat 01:56:55 PM 38.1658 -92.1381 274° West 457 526 43,000  Level Kansas City Center
Sat 01:57:57 PM 38.1731 -92.3000 273° West 460 529 43,000  Level Kansas City Center
Sat 01:58:58 PM 38.1822 -92.4631 274° West 464 534 43,000  Level Kansas City Center
Sat 02:00:00 PM 38.1878 -92.6253 273° West 462 532 43,000  Level Kansas City Center
Sat 02:01:02 PM 38.1950 -92.8053 273° West 461 531 43,000  Level Kansas City Center
Sat 02:02:04 PM 38.2028 -92.9667 274° West 458 527 43,000  Level Kansas City Center
Sat 02:03:06 PM 38.2092 -93.1300 273° West 461 531 43,000  Level Kansas City Center
Sat 02:04:08 PM 38.2156 -93.2925 273° West 461 531 43,000  Level Kansas City Center
Sat 02:05:10 PM 38.2231 -93.4872 273° West 461 531 43,000  Level Kansas City Center
Sat 02:06:12 PM 38.2283 -93.6506 272° West 462 532 43,000  Level Kansas City Center
Sat 02:07:14 PM 38.2347 -93.8128 273° West 460 529 43,000  Level Kansas City Center
Sat 02:08:16 PM 38.2408 -93.9764 273° West 462 532 43,000  Level Kansas City Center
Sat 02:09:18 PM 38.2464 -94.1381 273° West 466 536 43,000  Level Kansas City Center
Sat 02:10:21 PM 38.2508 -94.3236 272° West 468 539 43,000  Level Kansas City Center
Sat 02:11:22 PM 38.2567 -94.4814 273° West 468 539 43,000 49 Level Kansas City Center
Sat 02:12:24 PM 38.2608 -94.6675 272° West 468 539 43,100  Climbing Kansas City Center
Sat 02:13:26 PM 38.2647 -94.8272 272° West 469 540 43,000 -48 Descending Kansas City Center
Sat 02:14:28 PM 38.2686 -95.0142 272° West 470 541 43,000  Level Kansas City Center
Sat 02:15:30 PM 38.2719 -95.1744 272° West 472 543 43,000  Level Kansas City Center
Sat 02:16:32 PM 38.2764 -95.3625 272° West 473 544 43,000  Level Kansas City Center
Sat 02:17:33 PM 38.2800 -95.5247 272° West 476 548 43,000  Level Kansas City Center
Sat 02:18:35 PM 38.2825 -95.6847 271° West 471 542 43,000  Level Kansas City Center
Sat 02:19:37 PM 38.2861 -95.8692 271° West 468 539 43,000  Level Kansas City Center
Sat 02:20:39 PM 38.2883 -96.0267 271° West 466 536 43,000  Level Kansas City Center
Sat 02:21:41 PM 38.2906 -96.2117 271° West 466 536 43,000  Level Kansas City Center
Sat 02:22:43 PM 38.2931 -96.3686 271° West 464 534 43,000  Level Kansas City Center
Sat 02:23:45 PM 38.2936 -96.5461 270° West 465 535 43,000  Level Kansas City Center
Sat 02:24:46 PM 38.2958 -96.7108 271° West 466 536 43,000  Level Kansas City Center
Sat 02:25:48 PM 38.2967 -96.8744 270° West 464 534 43,000  Level Kansas City Center
Sat 02:26:50 PM 38.2978 -97.0378 271° West 464 534 43,000  Level Kansas City Center
Sat 02:27:52 PM 38.2994 -97.2014 271° West 463 533 43,000  Level Kansas City Center
Sat 02:28:54 PM 38.3006 -97.3636 271° West 462 532 43,000  Level Kansas City Center
Sat 02:29:56 PM 38.3008 -97.5583 270° West 461 531 43,000  Level Kansas City Center
Sat 02:30:57 PM 38.3006 -97.7206 270° West 462 532 43,000  Level Kansas City Center
Sat 02:31:59 PM 38.3011 -97.8825 270° West 463 533 43,000  Level Kansas City Center
Sat 02:33:01 PM 38.3008 -98.0456 270° West 465 535 43,000  Level Kansas City Center
Sat 02:34:03 PM 38.3006 -98.2075 270° West 464 534 43,000  Level Kansas City Center
Sat 02:35:04 PM 38.3000 -98.4050 270° West 468 539 43,000  Level Kansas City Center
Sat 02:36:06 PM 38.2981 -98.5692 269° West 467 537 43,000  Level Kansas City Center
Sat 02:37:08 PM 38.2975 -98.7361 270° West 471 542 43,000  Level Kansas City Center
Sat 02:38:10 PM 38.2958 -98.9019 269° West 471 542 43,000  Level Kansas City Center
Sat 02:39:11 PM 38.2944 -99.0675 269° West 470 541 43,000  Level Kansas City Center
Sat 02:40:13 PM 38.2925 -99.2344 269° West 472 543 43,000  Level Kansas City Center
Sat 02:41:15 PM 38.2903 -99.4031 269° West 475 547 43,000  Level Kansas City Center
Sat 02:42:17 PM 38.2867 -99.5981 269° West 472 543 43,000  Level Kansas City Center
Sat 02:43:19 PM 38.2842 -99.7586 269° West 474 545 43,000  Level Kansas City Center
Sat 02:44:21 PM 38.2819 -99.9464 269° West 475 547 43,000  Level Kansas City Center
Sat 02:45:52 PM 38.2753 -100.1858 268° West 477 549 43,000  Level Denver Center
Sat 02:46:54 PM 38.2711 -100.3708 268° West 473 544 43,000  Level Denver Center
Sat 02:47:56 PM 38.2669 -100.5297 268° West 472 543 43,000  Level Denver Center
Sat 02:48:58 PM 38.2628 -100.7167 268° West 475 547 43,000  Level Denver Center
Sat 02:50:00 PM 38.2603 -100.8783 269° West 479 551 43,000  Level Denver Center
Sat 02:51:02 PM 38.2544 -101.0675 268° West 482 555 43,000  Level Denver Center
Sat 02:52:04 PM 38.2489 -101.2275 268° West 476 548 43,000  Level Denver Center
Sat 02:53:06 PM 38.2433 -101.4178 268° West 484 557 43,000  Level Denver Center
Sat 02:54:08 PM 38.2386 -101.5794 268° West 482 555 43,000  Level Denver Center
Sat 02:55:10 PM 38.2317 -101.7700 267° West 485 558 43,000  Level Denver Center
Sat 02:56:12 PM 38.2261 -101.9331 268° West 485 558 43,000  Level Denver Center
Sat 02:57:14 PM 38.2192 -102.1239 267° West 485 558 43,000  Level Denver Center
Sat 02:58:16 PM 38.2128 -102.2875 267° West 487 560 43,000  Level Denver Center
Sat 02:59:18 PM 38.2050 -102.4775 267° West 482 555 43,000  Level Denver Center
Sat 03:00:20 PM 38.1981 -102.6417 267° West 486 559 43,000  Level Denver Center
Sat 03:01:22 PM 38.1628 -102.8300 257° West 493 567 43,000  Level Denver Center
Sat 03:02:24 PM 38.1194 -102.9914 251° West 502 578 43,000  Level Denver Center
Sat 03:03:26 PM 38.0758 -103.1600 252° West 504 580 43,000  Level Denver Center
Sat 03:04:28 PM 38.0269 -103.3469 252° West 501 577 43,000  Level Denver Center
Sat 03:05:30 PM 37.9853 -103.5086 252° West 504 580 43,000  Level Denver Center
Sat 03:06:32 PM 37.9353 -103.6964 251° West 506 582 43,000  Level Denver Center
Sat 03:07:34 PM 37.8925 -103.8581 252° West 510 587 43,000  Level Denver Center
Sat 03:08:36 PM 37.8431 -104.0442 251° West 505 581 43,000  Level Denver Center
Sat 03:09:38 PM 37.7992 -104.2042 251° West 509 586 43,000  Level Denver Center
Sat 03:10:40 PM 37.7492 -104.3903 251° West 506 582 43,000  Level Denver Center
Sat 03:11:41 PM 37.7042 -104.5500 250° West 508 585 43,000  Level Denver Center
Sat 03:12:43 PM 37.6533 -104.7375 251° West 507 583 43,000  Level Denver Center
Sat 03:13:45 PM 37.6083 -104.8972 250° West 506 582 43,000  Level Denver Center
Sat 03:14:47 PM 37.5553 -105.0828 250° West 505 581 43,000  Level Denver Center
Sat 03:15:49 PM 37.5136 -105.2397 252° West 501 577 43,000  Level Denver Center
Sat 03:16:51 PM 37.4603 -105.4253 250° West 504 580 43,000  Level Denver Center
Sat 03:17:53 PM 37.4158 -105.5836 251° West 502 578 43,000  Level Denver Center
Sat 03:18:55 PM 37.3625 -105.7689 250° West 504 580 43,000  Level Denver Center
Sat 03:19:57 PM 37.3200 -105.9289 252° West 504 580 43,000  Level Denver Center
Sat 03:20:58 PM 37.2722 -106.1164 252° West 506 582 43,000  Level Denver Center
Sat 03:22:00 PM 37.2303 -106.2772 252° West 506 582 43,000  Level Denver Center
Sat 03:23:02 PM 37.1956 -106.4692 257° West 504 580 43,000  Level Denver Center
Sat 03:24:04 PM 37.1644 -106.6319 257° West 503 579 43,000  Level Denver Center
Sat 03:25:06 PM 37.1336 -106.7939 257° West 501 577 43,000  Level Denver Center
Sat 03:26:07 PM 37.0981 -106.9814 257° West 497 572 43,000  Level Denver Center
Sat 03:27:09 PM 37.0667 -107.1433 256° West 500 575 43,000  Level Denver Center
Sat 03:28:11 PM 37.0297 -107.3325 256° West 500 575 43,000  Level Denver Center
Sat 03:29:13 PM 36.9978 -107.4947 256° West 502 578 43,000  Level Denver Center
Sat 03:30:15 PM 36.9594 -107.6836 256° West 502 578 43,000  Level Denver Center
Sat 03:31:16 PM 36.9283 -107.8422 256° West 494 568 43,000  Level Denver Center
Sat 03:32:18 PM 36.8903 -108.0300 256° West 500 575 43,000  Level Denver Center
Sat 03:33:20 PM 36.8583 -108.1892 256° West 497 572 43,000  Level Denver Center
Sat 03:34:22 PM 36.8253 -108.3497 256° West 498 573 43,000  Level Denver Center
Sat 03:35:24 PM 36.7867 -108.5381 256° West 503 579 43,000  Level Denver Center
Sat 03:36:25 PM 36.7542 -108.6992 256° West 502 578 43,000  Level Denver Center
Sat 03:37:27 PM 36.7136 -108.8856 255° West 502 578 43,000  Level Denver Center
Sat 03:38:29 PM 36.6797 -109.0450 255° West 502 578 43,000  Level Denver Center
Sat 03:39:31 PM 36.6400 -109.2308 255° West 499 574 43,000  Level Denver Center
Sat 03:40:32 PM 36.6061 -109.3900 255° West 499 574 43,000  Level Denver Center
Sat 03:41:34 PM 36.5650 -109.5753 255° West 500 575 43,000  Level Denver Center
Sat 03:42:36 PM 36.5294 -109.7361 255° West 504 580 43,000  Level Denver Center
Sat 03:43:38 PM 36.4889 -109.9236 255° West 506 582 43,000  Level Denver Center
Sat 03:44:40 PM 36.4522 -110.0853 254° West 507 583 43,000  Level Denver Center
Sat 03:45:41 PM 36.4125 -110.2636 255° West 506 582 43,000  Level Denver Center
Sat 03:46:43 PM 36.3756 -110.4303 255° West 504 580 43,000  Level Denver Center
Sat 03:47:45 PM 36.3356 -110.5975 254° West 503 579 43,000  Level Denver Center
Sat 03:48:47 PM 36.2989 -110.7611 255° West 498 573 43,000  Level Denver Center
Sat 03:49:49 PM 36.2611 -110.9256 254° West 496 571 43,000  Level Denver Center
Sat 03:50:50 PM 36.2164 -111.1228 254° West 496 571 43,000  Level Denver Center
Sat 03:51:52 PM 36.1772 -111.2875 254° West 498 573 43,000  Level Denver Center
Sat 03:52:54 PM 36.1400 -111.4508 254° West 494 568 43,000  Level Denver Center
Sat 03:53:56 PM 36.1003 -111.6164 254° West 499 574 43,000  Level Denver Center
Sat 03:54:57 PM 36.0606 -111.7811 253° West 500 575 43,000  Level Denver Center
Sat 03:55:59 PM 36.0203 -111.9458 253° West 500 575 43,000  Level Denver Center
Sat 03:57:01 PM 35.9822 -112.1108 254° West 500 575 43,000  Level Denver Center
Sat 03:58:03 PM 35.9411 -112.2733 253° West 497 572 43,000  Level Denver Center
Sat 03:59:22 PM 35.8889 -112.4872 253° West 498 573 43,000  Level Los Angeles Center
Sat 04:00:24 PM 35.8425 -112.6797 253° West 495 570 43,000  Level Los Angeles Center
Sat 04:01:25 PM 35.8025 -112.8408 253° West 498 573 43,000  Level Los Angeles Center
Sat 04:02:27 PM 35.7625 -113.0011 253° West 498 573 43,000  Level Los Angeles Center
Sat 04:03:29 PM 35.7225 -113.1619 253° West 499 574 43,000  Level Los Angeles Center
Sat 04:04:31 PM 35.6733 -113.3544 253° West 501 577 43,000  Level Los Angeles Center
Sat 04:05:33 PM 35.6328 -113.5144 253° West 499 574 43,000  Level Los Angeles Center
Sat 04:06:35 PM 35.5897 -113.6731 252° West 496 571 43,000 -194 Level Los Angeles Center
Sat 04:07:37 PM 35.5464 -113.8331 252° West 499 574 42,600 -726 Descending Los Angeles Center
Sat 04:08:39 PM 35.5036 -113.9908 252° West 495 570 41,500 -1,161 Descending Los Angeles Center
Sat 04:09:41 PM 35.4514 -114.1825 252° West 501 577 40,200 -1,065 Descending Los Angeles Center
Sat 04:10:43 PM 35.4131 -114.3236 252° West 499 574 39,300 -1,016 Descending Los Angeles Center
Sat 04:11:45 PM 35.3581 -114.5211 251° West 509 586 38,100 -1,065 Descending Los Angeles Center
Sat 04:12:47 PM 35.3103 -114.6858 250° West 512 589 37,100 -1,016 Descending Los Angeles Center
Sat 04:13:49 PM 35.2650 -114.8478 251° West 505 581 36,000 -1,016 Descending Los Angeles Center
Sat 04:14:51 PM 35.2194 -115.0103 251° West 504 580 35,000 -968 Descending Los Angeles Center
Sat 04:15:53 PM 35.1731 -115.1772 251° West 508 585 34,000 -488 Descending Los Angeles Center
Sat 04:16:54 PM 35.1258 -115.3428 251° West 517 595 34,000  Level Los Angeles Center
Sat 04:17:56 PM 35.0761 -115.5075 250° West 519 597 34,000  Level Los Angeles Center
Sat 04:18:58 PM 35.0203 -115.7075 251° West 519 597 34,000 -339 Level Los Angeles Center
Sat 04:20:00 PM 34.9731 -115.8742 251° West 520 598 33,300 -1,645 Descending Los Angeles Center
Sat 04:21:02 PM 34.9231 -116.0389 250° West 519 597 30,600 -2,710 Descending Los Angeles Center
Sat 04:22:04 PM 34.8736 -116.2069 250° West 525 604 27,700 -2,683 Descending Los Angeles Center
Sat 04:23:05 PM 34.8258 -116.3678 250° West 513 590 25,100 -2,390 Descending Los Angeles Center
Sat 04:24:07 PM 34.7906 -116.5256 255° West 489 563 22,800 -1,790 Descending Los Angeles Center
Sat 04:25:09 PM 34.7750 -116.6861 263° West 479 551 21,400 -1,355 Descending Los Angeles Center
Sat 04:26:11 PM 34.7564 -116.8778 263° West 474 545 20,000 -677 Descending Los Angeles Center
Sat 04:27:13 PM 34.7406 -117.0325 263° West 462 532 20,000  Level Los Angeles Center
Sat 04:28:15 PM 34.7250 -117.1867 263° West 458 527 20,000  Level Los Angeles Center
Sat 04:29:17 PM 34.7089 -117.3383 263° West 452 520 20,000 -48 Level Los Angeles Center
Sat 04:30:19 PM 34.6928 -117.4900 263° West 450 518 19,900 -1,355 Descending Los Angeles Center
Sat 04:31:21 PM 34.6764 -117.6364 262° West 437 503 17,200 -2,439 Descending Los Angeles Center
Sat 04:32:22 PM 34.6614 -117.7836 263° West 439 505 14,900 -2,049 Descending Los Angeles Center
Sat 04:33:24 PM 34.6467 -117.9233 263° West 418 481 13,000 -1,790 Descending Los Angeles Center
Sat 04:34:26 PM 34.6297 -118.0725 262° West 368 423 11,200 -1,306 Descending Los Angeles Center
Sat 04:35:28 PM 34.6108 -118.1608 255° West 307 353 10,300 -1,016 Descending Los Angeles Center
Sat 04:36:30 PM 34.5892 -118.2564 255° West 295 339 9,100 -1,113 Descending Los Angeles Center
Sat 04:37:32 PM 34.5642 -118.3700 255° West 291 335 8,000 -484 Descending Los Angeles Center
Sat 04:38:34 PM 34.5319 -118.4536 245° Southwest 288 331 8,100 -435 Climbing Los Angeles Center
Sat 04:39:36 PM 34.4761 -118.5181 224° Southwest 279 321 7,100 -1,258 Descending Los Angeles Center
Sat 04:40:38 PM 34.3997 -118.5136 177° South 277 319 5,500 -1,317 Descending Los Angeles Center
Sat 04:41:39 PM 34.3367 -118.5047 173° South 239 275 4,400 -1,122 Descending Los Angeles Center
Sat 04:42:41 PM 34.2919 -118.4983 173° South 195 224 3,200 -1,355 Descending Los Angeles Center
Sat 04:43:43 PM 34.2458 -118.4947 176° South 157 181 1,600 -1,161 Descending Los Angeles Center
Sat 04:44:45 PM 34.2175 -118.4928 177° South 145 167 800 -774 Descending Los Angeles Center
Sat 04:46:00 PM 34.2098 -118.4900 180° South  Level Estimated
Sat 04:53:00 PM 34.2098 -118.4900 180° South  Level Estimated
Sat 04:54:00 PM 34.2098 -118.4900 180° South  Level Estimated

Login

Don't have an account? Register now (free) for customized features, flight alerts, and more!